Time;durP1;ratioP1;P1;durP2;ratioP2;P2;SDS_P1;SDS_P2;PMS_P1;PMS_P2;Temp;Humidity;BMP_temperature;BMP_pressure;BME280_temperature;BME280_humidity;BME280_pressure;Samples;Min_cycle;Max_cycle;Signal;HPM_P1;HPM_P2
2022/08/10 00:00:19;;;;;;;;;;;;;;;22.56;61.13;100105.50;5073255;28;19924;-81
2022/08/10 00:02:45;;;;;;;;;;;;;;;22.65;59.64;100097.16;5073714;28;19984;-80
2022/08/10 00:05:10;;;;;;;;;;;;;;;22.57;58.62;100097.81;5073436;28;20410;-81
2022/08/10 00:07:41;;;;;;;;;;;;;;;22.66;60.61;100097.97;5073041;28;19936;-82
2022/08/10 00:10:07;;;;;;;;;;;;;;;22.57;60.61;100100.63;5072947;28;19924;-81
2022/08/10 00:12:32;;;;;;;;;;;;;;;22.60;60.96;100100.56;5073124;28;19923;-81
2022/08/10 00:15:01;;;;;;;;;;;;;;;22.67;60.79;100106.00;5056638;28;19970;-82
2022/08/10 00:17:28;;;;;;;;;;;;;;;22.68;60.19;100084.13;5073280;28;20291;-80
2022/08/10 00:19:53;;;;;;;;;;;;;;;22.61;56.09;100084.31;5072988;28;19920;-81
2022/08/10 00:22:19;;;;;;;;;;;;;;;22.79;56.80;100089.47;5072706;28;20310;-80
2022/08/10 00:24:46;;;;;;;;;;;;;;;22.79;57.56;100083.81;5073536;28;19925;-82
2022/08/10 00:27:12;;;;;;;;;;;;;;;22.77;57.56;100087.09;5072958;28;19971;-81
2022/08/10 00:29:40;;;;;;;;;;;;;;;22.71;56.94;100088.91;5072838;28;19916;-80
2022/08/10 00:32:05;;;;;;;;;;;;;;;22.75;57.67;100089.59;5072770;28;19965;-81
2022/08/10 00:34:31;;;;;;;;;;;;;;;22.78;57.34;100088.69;5072850;28;19916;-81
2022/08/10 00:36:58;;;;;;;;;;;;;;;22.77;56.46;100080.66;5072804;28;19951;-80
2022/08/10 00:39:24;;;;;;;;;;;;;;;22.78;58.06;100087.91;5072358;28;19917;-82
2022/08/10 00:41:49;;;;;;;;;;;;;;;22.81;57.79;100087.81;5056257;28;19931;-81
2022/08/10 00:44:14;;;;;;;;;;;;;;;22.80;57.04;100083.38;5072616;28;19969;-82
2022/08/10 00:46:40;;;;;;;;;;;;;;;22.79;56.62;100083.81;5073277;28;19923;-81
2022/08/10 00:49:08;;;;;;;;;;;;;;;22.79;56.54;100076.09;5074309;28;20383;-81
2022/08/10 00:51:33;;;;;;;;;;;;;;;22.82;57.42;100077.25;5072964;28;20015;-80
2022/08/10 00:53:59;;;;;;;;;;;;;;;22.84;55.42;100078.38;5072587;28;20303;-80
2022/08/10 00:56:24;;;;;;;;;;;;;;;22.89;56.03;100077.06;5072587;28;19916;-82
2022/08/10 00:58:55;;;;;;;;;;;;;;;22.94;56.71;100077.31;5073196;28;19916;-82
2022/08/10 01:01:20;;;;;;;;;;;;;;;23.02;57.94;100075.06;5072841;28;19977;-83
2022/08/10 01:03:46;;;;;;;;;;;;;;;23.03;58.51;100073.03;5072462;28;20370;-81
2022/08/10 01:06:17;;;;;;;;;;;;;;;23.05;59.18;100073.34;5072540;28;19916;-82
2022/08/10 01:08:48;;;;;;;;;;;;;;;23.12;59.35;100073.16;5072666;28;20367;-81
2022/08/10 01:11:17;;;;;;;;;;;;;;;23.06;59.10;100081.41;5072569;28;20371;-80
2022/08/10 01:13:56;;;;;;;;;;;;;;;23.02;59.64;100075.06;5072458;28;19921;-79
2022/08/10 01:16:26;;;;;;;;;;;;;;;23.04;59.26;100077.44;5072344;28;19917;-81
2022/08/10 01:19:10;;;;;;;;;;;;;;;23.04;59.56;100083.91;5072347;28;20004;-82
2022/08/10 01:21:54;;;;;;;;;;;;;;;23.03;60.10;100085.16;5071986;28;19916;-80
2022/08/10 01:24:38;;;;;;;;;;;;;;;23.06;58.85;100084.25;5072491;28;20006;-81
2022/08/10 01:27:24;;;;;;;;;;;;;;;23.11;59.20;100094.25;5072243;28;19924;-82
2022/08/10 01:29:59;;;;;;;;;;;;;;;23.14;58.57;100091.31;5051554;28;19923;-79
2022/08/10 01:32:35;;;;;;;;;;;;;;;23.16;59.00;100082.34;5072484;28;19927;-79
2022/08/10 01:35:14;;;;;;;;;;;;;;;23.16;58.76;100090.84;5072246;28;20011;-79
2022/08/10 01:37:44;;;;;;;;;;;;;;;23.19;58.98;100085.09;5072442;28;19917;-79
2022/08/10 01:40:16;;;;;;;;;;;;;;;23.24;59.34;100081.69;5072187;28;19974;-80
2022/08/10 01:42:43;;;;;;;;;;;;;;;23.27;59.69;100077.91;5072677;28;19916;-80
2022/08/10 01:45:09;;;;;;;;;;;;;;;23.51;60.14;100084.09;5072442;28;19939;-80
2022/08/10 01:50:32;;;;;;;;;;;;;;;23.29;59.95;100076.69;5074936;28;19924;-81
2022/08/10 01:53:01;;;;;;;;;;;;;;;23.30;60.21;100081.13;5075695;28;19923;-80
2022/08/10 01:55:30;;;;;;;;;;;;;;;23.39;60.42;100076.38;5075685;28;19917;-80
2022/08/10 01:57:57;;;;;;;;;;;;;;;23.49;60.90;100075.22;5075978;28;20375;-80
2022/08/10 02:00:22;;;;;;;;;;;;;;;23.42;61.15;100077.50;5075479;28;19916;-82
2022/08/10 02:02:51;;;;;;;;;;;;;;;23.38;61.19;100077.59;5076012;28;19916;-80
2022/08/10 02:05:22;;;;;;;;;;;;;;;23.36;61.04;100071.59;5075541;28;19916;-80
2022/08/10 02:07:48;;;;;;;;;;;;;;;23.37;61.53;100078.84;5075494;28;20362;-80
2022/08/10 02:10:18;;;;;;;;;;;;;;;23.39;62.49;100075.56;5075475;28;19928;-82
2022/08/10 02:12:45;;;;;;;;;;;;;;;23.42;62.95;100069.75;5075460;28;20450;-82
2022/08/10 02:15:16;;;;;;;;;;;;;;;23.40;62.93;100071.47;5075395;28;20394;-80
2022/08/10 02:17:44;;;;;;;;;;;;;;;23.34;62.34;100062.72;5075450;28;19917;-83
2022/08/10 02:20:19;;;;;;;;;;;;;;;23.32;62.36;100064.41;5075344;28;19923;-79
2022/08/10 02:22:46;;;;;;;;;;;;;;;23.26;62.88;100062.16;5075205;28;19926;-81
2022/08/10 02:25:15;;;;;;;;;;;;;;;23.27;63.47;100063.72;5075247;28;19917;-81
2022/08/10 02:27:44;;;;;;;;;;;;;;;23.25;63.44;100065.44;5058703;28;20381;-80
2022/08/10 02:30:11;;;;;;;;;;;;;;;23.21;62.68;100061.91;5075491;28;19916;-81
2022/08/10 02:32:37;;;;;;;;;;;;;;;23.22;62.31;100054.97;5075609;28;19924;-81
2022/08/10 02:35:05;;;;;;;;;;;;;;;23.17;61.53;100058.38;5058555;28;20278;-81
2022/08/10 02:37:33;;;;;;;;;;;;;;;23.19;61.80;100055.91;5075021;28;20011;-79
2022/08/10 02:39:58;;;;;;;;;;;;;;;23.16;61.87;100059.63;5075002;28;19917;-79
2022/08/10 02:42:27;;;;;;;;;;;;;;;23.27;62.19;100058.06;5075377;28;19921;-82
2022/08/10 02:45:02;;;;;;;;;;;;;;;23.36;62.00;100068.75;5074877;28;20015;-81
2022/08/10 02:47:30;;;;;;;;;;;;;;;23.18;63.05;100068.50;5075398;28;19923;-79
2022/08/10 02:49:59;;;;;;;;;;;;;;;23.23;62.99;100070.78;5074829;28;19920;-82
2022/08/10 02:52:28;;;;;;;;;;;;;;;23.15;62.37;100072.25;5074689;28;19921;-82
2022/08/10 02:55:04;;;;;;;;;;;;;;;23.20;62.35;100066.00;5074710;28;19916;-82
2022/08/10 02:57:35;;;;;;;;;;;;;;;23.13;62.79;100069.06;5075482;28;19916;-82
2022/08/10 03:00:03;;;;;;;;;;;;;;;23.17;63.14;100064.06;5074905;28;20375;-79
2022/08/10 03:02:33;;;;;;;;;;;;;;;23.05;63.84;100059.16;5073497;28;20367;-82
2022/08/10 03:05:02;;;;;;;;;;;;;;;23.10;63.33;100061.44;5074750;28;20363;-81
2022/08/10 03:07:30;;;;;;;;;;;;;;;22.99;63.58;100059.72;5074663;28;19917;-82
2022/08/10 03:09:56;;;;;;;;;;;;;;;22.94;63.89;100063.13;5074184;28;19982;-82
2022/08/10 03:12:25;;;;;;;;;;;;;;;22.90;64.23;100064.47;5074893;28;19963;-80
2022/08/10 03:14:54;;;;;;;;;;;;;;;22.94;64.33;100057.44;5074841;28;19917;-81
2022/08/10 03:17:21;;;;;;;;;;;;;;;22.99;64.09;100058.94;5074719;28;19974;-82
2022/08/10 03:19:50;;;;;;;;;;;;;;;22.99;63.96;100056.09;5074175;28;19917;-81
2022/08/10 03:22:25;;;;;;;;;;;;;;;23.03;63.30;100061.69;5075358;28;19923;-81
2022/08/10 03:24:53;;;;;;;;;;;;;;;22.99;63.25;100050.44;5073918;28;19963;-79
2022/08/10 03:27:19;;;;;;;;;;;;;;;22.92;63.64;100059.94;5074120;28;20444;-80
2022/08/10 03:29:45;;;;;;;;;;;;;;;22.87;64.12;100063.31;5074191;28;19916;-81
2022/08/10 03:32:11;;;;;;;;;;;;;;;22.85;63.92;100071.50;5074482;28;20375;-80
2022/08/10 03:34:37;;;;;;;;;;;;;;;22.86;64.13;100070.25;5074149;28;19920;-80
2022/08/10 03:37:03;;;;;;;;;;;;;;;22.78;64.34;100066.00;5073813;28;19916;-81
2022/08/10 03:39:28;;;;;;;;;;;;;;;22.77;64.57;100070.09;5073758;28;19917;-80
2022/08/10 03:42:00;;;;;;;;;;;;;;;22.80;64.23;100062.72;5073652;28;19920;-81
2022/08/10 03:44:30;;;;;;;;;;;;;;;22.75;64.36;100075.44;5073565;28;19917;-80
2022/08/10 03:46:58;;;;;;;;;;;;;;;22.81;64.50;100075.66;5073596;28;19920;-80
2022/08/10 03:49:28;;;;;;;;;;;;;;;22.73;64.37;100072.22;5074106;28;19965;-81
2022/08/10 03:51:54;;;;;;;;;;;;;;;22.63;64.20;100073.31;5074259;28;20374;-81
2022/08/10 03:54:22;;;;;;;;;;;;;;;22.68;64.47;100069.94;5073744;28;19917;-80
2022/08/10 03:56:48;;;;;;;;;;;;;;;22.66;63.08;100073.22;5073844;28;19916;-81
2022/08/10 03:59:14;;;;;;;;;;;;;;;22.61;63.91;100073.00;5073824;28;19985;-81
2022/08/10 04:01:43;;;;;;;;;;;;;;;22.63;64.60;100076.16;5073219;28;19916;-81
2022/08/10 04:04:12;;;;;;;;;;;;;;;22.61;65.07;100076.63;5073656;28;20309;-81
2022/08/10 04:06:39;;;;;;;;;;;;;;;22.62;64.95;100075.38;5073756;28;19917;-79
2022/08/10 04:09:05;;;;;;;;;;;;;;;22.64;64.69;100070.06;5073352;28;20007;-81
2022/08/10 04:11:35;;;;;;;;;;;;;;;22.59;65.21;100075.47;5073698;28;19916;-80
2022/08/10 04:14:01;;;;;;;;;;;;;;;22.55;64.79;100069.13;5072756;28;19916;-81
2022/08/10 04:16:29;;;;;;;;;;;;;;;22.63;64.11;100076.16;5056548;28;19928;-81
2022/08/10 04:18:54;;;;;;;;;;;;;;;22.72;63.62;100073.47;5073242;28;19920;-80
2022/08/10 04:21:26;;;;;;;;;;;;;;;22.65;63.53;100073.69;5072965;28;20481;-80
2022/08/10 04:23:52;;;;;;;;;;;;;;;22.61;63.96;100075.81;5073094;28;19916;-79
2022/08/10 04:26:20;;;;;;;;;;;;;;;22.67;64.00;100086.16;5073419;28;20274;-79
2022/08/10 04:28:47;;;;;;;;;;;;;;;22.75;63.52;100095.28;5073070;28;19917;-81
2022/08/10 04:31:14;;;;;;;;;;;;;;;22.67;63.87;100088.19;5072806;28;20001;-79
2022/08/10 04:33:42;;;;;;;;;;;;;;;22.67;64.02;100099.53;5056139;28;19920;-81
2022/08/10 04:36:12;;;;;;;;;;;;;;;22.81;63.76;100093.47;5072737;28;19962;-82
2022/08/10 04:38:39;;;;;;;;;;;;;;;23.11;63.34;100102.75;5072717;28;19924;-81
2022/08/10 04:41:04;;;;;;;;;;;;;;;23.43;61.27;100096.09;5072686;28;19926;-82
2022/08/10 04:43:29;;;;;;;;;;;;;;;23.76;59.14;100106.03;5072856;28;19916;-79
2022/08/10 04:45:58;;;;;;;;;;;;;;;24.25;57.52;100101.97;5072684;28;19928;-81
2022/08/10 04:48:23;;;;;;;;;;;;;;;24.93;56.20;100105.25;5073217;28;19939;-83
2022/08/10 04:50:52;;;;;;;;;;;;;;;25.53;54.63;100097.25;5072785;28;20363;-81
2022/08/10 04:53:20;;;;;;;;;;;;;;;26.13;53.34;100108.25;5072588;28;19917;-80
2022/08/10 04:55:45;;;;;;;;;;;;;;;26.07;51.97;100093.03;5073057;28;19916;-80
2022/08/10 04:58:11;;;;;;;;;;;;;;;26.78;50.19;100097.69;5072787;28;20283;-80
2022/08/10 05:00:39;;;;;;;;;;;;;;;27.12;48.99;100093.72;5072528;28;19966;-81
2022/08/10 05:03:04;;;;;;;;;;;;;;;27.58;47.56;100102.13;5072931;28;19968;-79
2022/08/10 05:05:30;;;;;;;;;;;;;;;28.10;47.25;100097.13;5072785;28;20409;-82
2022/08/10 05:07:55;;;;;;;;;;;;;;;28.47;45.63;100091.19;5072746;28;20325;-82
2022/08/10 05:10:21;;;;;;;;;;;;;;;28.79;44.93;100094.41;5072366;28;19920;-80
2022/08/10 05:12:46;;;;;;;;;;;;;;;29.30;43.96;100102.69;5072306;28;20011;-82
2022/08/10 05:15:12;;;;;;;;;;;;;;;29.12;43.60;100097.91;5072673;28;19917;-81
2022/08/10 05:17:41;;;;;;;;;;;;;;;29.47;42.78;100108.69;5072339;28;19917;-80
2022/08/10 05:20:09;;;;;;;;;;;;;;;29.67;42.39;100105.94;5072337;28;19916;-81
2022/08/10 05:22:36;;;;;;;;;;;;;;;29.85;42.07;100109.84;5072845;28;20011;-81
2022/08/10 05:25:01;;;;;;;;;;;;;;;29.91;42.21;100110.72;5056440;28;20406;-80
2022/08/10 05:27:32;;;;;;;;;;;;;;;30.07;40.47;100109.38;5076288;28;19963;-81
2022/08/10 05:29:57;;;;;;;;;;;;;;;29.62;42.18;100105.84;5076408;28;19916;-80
2022/08/10 05:32:26;;;;;;;;;;;;;;;29.54;41.97;100111.19;5076392;28;20274;-82
2022/08/10 05:34:51;;;;;;;;;;;;;;;29.97;41.21;100105.84;5077433;28;19956;-80
2022/08/10 05:37:20;;;;;;;;;;;;;;;30.22;40.15;100110.94;5076060;28;19917;-81
2022/08/10 05:39:48;;;;;;;;;;;;;;;30.04;42.51;100116.88;5076252;28;20363;-81
2022/08/10 05:42:16;;;;;;;;;;;;;;;30.16;40.83;100115.03;5059722;28;19920;-80
2022/08/10 05:44:45;;;;;;;;;;;;;;;30.61;40.50;100119.25;5077662;28;19917;-82
2022/08/10 05:47:11;;;;;;;;;;;;;;;30.38;40.34;100112.44;5077496;28;20007;-81
2022/08/10 05:49:36;;;;;;;;;;;;;;;30.22;41.79;100113.81;5075769;28;19997;-81
2022/08/10 05:52:02;;;;;;;;;;;;;;;30.15;41.48;100116.28;5076019;28;19924;-80
2022/08/10 05:54:27;;;;;;;;;;;;;;;30.15;41.17;100119.97;5075679;28;20389;-82
2022/08/10 05:56:53;;;;;;;;;;;;;;;30.14;42.19;100121.25;5075645;28;19917;-83
2022/08/10 05:59:20;;;;;;;;;;;;;;;30.46;41.84;100107.84;5059333;28;19924;-81
2022/08/10 06:01:50;;;;;;;;;;;;;;;30.46;40.88;100118.53;5075876;28;19917;-81
2022/08/10 06:04:18;;;;;;;;;;;;;;;30.21;41.83;100126.56;5075472;28;19923;-81
2022/08/10 06:06:46;;;;;;;;;;;;;;;30.37;41.78;100121.56;5075517;28;20000;-80
2022/08/10 06:09:13;;;;;;;;;;;;;;;30.04;41.51;100122.63;5075427;28;19927;-82
2022/08/10 06:11:39;;;;;;;;;;;;;;;30.03;42.17;100126.78;5075157;28;19916;-81
2022/08/10 06:16:50;;;;;;;;;;;;;;;29.91;42.50;100125.06;5077228;28;20019;-81
2022/08/10 06:19:16;;;;;;;;;;;;;;;29.78;42.53;100130.34;5075340;28;19917;-81
2022/08/10 06:21:44;;;;;;;;;;;;;;;30.09;41.87;100121.91;5075442;28;19923;-82
2022/08/10 06:24:10;;;;;;;;;;;;;;;30.27;42.65;100124.56;5075107;28;20007;-81
2022/08/10 06:26:36;;;;;;;;;;;;;;;30.62;41.32;100120.81;5075027;28;20359;-82
2022/08/10 06:29:10;;;;;;;;;;;;;;;30.38;41.42;100123.13;5075418;28;19924;-80
2022/08/10 06:31:37;;;;;;;;;;;;;;;30.78;40.56;100126.00;5074818;28;19973;-81
2022/08/10 06:34:04;;;;;;;;;;;;;;;31.12;39.86;100117.75;5058949;28;19927;-82
2022/08/10 06:36:30;;;;;;;;;;;;;;;31.41;39.10;100124.56;5058205;28;19921;-82
2022/08/10 06:38:55;;;;;;;;;;;;;;;31.05;40.00;100118.19;5075470;28;19920;-81
2022/08/10 06:41:26;;;;;;;;;;;;;;;31.08;39.87;100122.16;5074864;28;20413;-83
2022/08/10 06:43:58;;;;;;;;;;;;;;;31.27;39.73;100123.44;5074628;28;19923;-82
2022/08/10 06:46:25;;;;;;;;;;;;;;;31.24;39.41;100130.94;5075003;28;19917;-82
2022/08/10 06:48:53;;;;;;;;;;;;;;;30.94;39.90;100123.81;5074649;28;19923;-80
2022/08/10 06:51:26;;;;;;;;;;;;;;;30.99;39.33;100125.97;5074888;28;20252;-81
2022/08/10 06:53:55;;;;;;;;;;;;;;;31.52;37.90;100125.47;5074540;28;19967;-80
2022/08/10 06:56:22;;;;;;;;;;;;;;;31.71;37.93;100122.22;5074843;28;20329;-81
2022/08/10 06:59:02;;;;;;;;;;;;;;;32.37;37.16;100121.09;5074501;28;19916;-83
2022/08/10 07:01:31;;;;;;;;;;;;;;;33.14;36.07;100124.81;5074762;28;19963;-82
2022/08/10 07:04:01;;;;;;;;;;;;;;;33.20;35.45;100130.56;5074348;28;19923;-82
2022/08/10 07:06:27;;;;;;;;;;;;;;;33.42;34.83;100126.97;5074312;28;19917;-81
2022/08/10 07:08:54;;;;;;;;;;;;;;;32.62;35.07;100124.38;5057490;28;19920;-82
2022/08/10 07:11:20;;;;;;;;;;;;;;;32.81;35.60;100128.34;5074180;28;19928;-81
2022/08/10 07:13:47;;;;;;;;;;;;;;;32.48;35.79;100126.13;5074932;28;19920;-80
2022/08/10 07:16:15;;;;;;;;;;;;;;;32.98;34.95;100116.91;5074786;28;20239;-81
2022/08/10 07:18:43;;;;;;;;;;;;;;;33.32;34.21;100123.50;5074149;28;19916;-82
2022/08/10 07:21:11;;;;;;;;;;;;;;;33.97;32.98;100126.16;5074052;28;19923;-81
2022/08/10 07:23:39;;;;;;;;;;;;;;;34.04;33.03;100128.50;5073917;28;20362;-81
2022/08/10 07:26:08;;;;;;;;;;;;;;;34.53;32.38;100120.25;5057482;28;19946;-81
2022/08/10 07:28:34;;;;;;;;;;;;;;;34.31;32.84;100120.31;5073814;28;19916;-81
2022/08/10 07:31:00;;;;;;;;;;;;;;;34.44;31.36;100122.63;5074043;28;19923;-82
2022/08/10 07:33:26;;;;;;;;;;;;;;;34.10;31.66;100123.50;5074363;28;19917;-81
2022/08/10 07:35:52;;;;;;;;;;;;;;;34.65;31.23;100132.53;5074264;28;19986;-82
2022/08/10 07:38:22;;;;;;;;;;;;;;;33.22;32.83;100122.97;5073697;28;19916;-80
2022/08/10 07:40:49;;;;;;;;;;;;;;;33.48;32.91;100119.09;5073768;28;19989;-82
2022/08/10 07:43:17;;;;;;;;;;;;;;;33.80;31.81;100125.38;5057304;28;20371;-81
2022/08/10 07:45:43;;;;;;;;;;;;;;;33.79;33.09;100130.34;5073732;28;19965;-82
2022/08/10 07:48:12;;;;;;;;;;;;;;;33.23;34.02;100130.31;5073021;28;20014;-82
2022/08/10 07:50:38;;;;;;;;;;;;;;;33.49;32.70;100129.31;5073566;28;19916;-81
2022/08/10 07:53:08;;;;;;;;;;;;;;;33.89;32.19;100131.66;5075557;28;19920;-81
2022/08/10 07:55:35;;;;;;;;;;;;;;;34.38;31.98;100125.53;5073538;28;19920;-80
2022/08/10 07:58:04;;;;;;;;;;;;;;;35.14;30.44;100129.91;5073899;28;19916;-83
2022/08/10 08:00:30;;;;;;;;;;;;;;;33.87;31.56;100128.50;5073258;28;19916;-81
2022/08/10 08:03:00;;;;;;;;;;;;;;;33.32;31.98;100130.06;5073198;28;20015;-80
2022/08/10 08:05:28;;;;;;;;;;;;;;;33.41;32.21;100125.34;5073265;28;19923;-82
2022/08/10 08:07:55;;;;;;;;;;;;;;;33.80;31.97;100128.25;5056896;28;20394;-81
2022/08/10 08:10:27;;;;;;;;;;;;;;;34.98;30.97;100122.13;5072736;28;19926;-82
2022/08/10 08:12:53;;;;;;;;;;;;;;;34.99;29.89;100129.47;5073030;28;19924;-81
2022/08/10 08:15:21;;;;;;;;;;;;;;;34.83;30.13;100131.13;5073175;28;20015;-81
2022/08/10 08:17:48;;;;;;;;;;;;;;;33.79;30.90;100129.56;5073625;28;20350;-81
2022/08/10 08:20:16;;;;;;;;;;;;;;;33.61;32.11;100133.75;5073538;28;19970;-81
2022/08/10 08:22:42;;;;;;;;;;;;;;;33.88;31.25;100132.97;5073242;28;20271;-81
2022/08/10 08:25:08;;;;;;;;;;;;;;;33.72;31.13;100128.00;5072995;28;19917;-81
2022/08/10 08:27:33;;;;;;;;;;;;;;;34.35;29.92;100132.34;5073259;28;19916;-81
2022/08/10 08:30:00;;;;;;;;;;;;;;;34.38;30.11;100134.97;5072991;28;19938;-82
2022/08/10 08:32:27;;;;;;;;;;;;;;;33.73;30.58;100132.47;5073538;28;19916;-81
2022/08/10 08:34:57;;;;;;;;;;;;;;;33.67;31.35;100130.91;5057177;28;19928;-80
2022/08/10 08:37:24;;;;;;;;;;;;;;;33.82;30.42;100129.28;5073988;28;19924;-82
2022/08/10 08:39:49;;;;;;;;;;;;;;;34.09;30.31;100126.91;5072297;28;19916;-81
2022/08/10 08:42:24;;;;;;;;;;;;;;;34.04;30.21;100130.63;5072628;28;20322;-80
2022/08/10 08:45:01;;;;;;;;;;;;;;;34.34;29.28;100131.56;5072535;28;19923;-81
2022/08/10 08:47:27;;;;;;;;;;;;;;;35.07;28.79;100130.50;5072356;28;19917;-80
2022/08/10 08:50:01;;;;;;;;;;;;;;;34.50;29.86;100132.06;5072556;28;19923;-82
2022/08/10 08:52:32;;;;;;;;;;;;;;;34.48;29.74;100126.84;5072499;28;20007;-82
2022/08/10 08:55:16;;;;;;;;;;;;;;;35.60;28.83;100119.63;5072880;28;20037;-81
2022/08/10 08:58:00;;;;;;;;;;;;;;;35.35;28.56;100125.28;5072330;28;20363;-80
2022/08/10 09:00:38;;;;;;;;;;;;;;;35.92;28.30;100126.41;5072407;28;20355;-80
2022/08/10 09:03:19;;;;;;;;;;;;;;;36.75;27.43;100125.22;5072395;28;19916;-81
2022/08/10 09:06:03;;;;;;;;;;;;;;;37.08;26.67;100124.00;5072445;28;19927;-81
2022/08/10 09:08:28;;;;;;;;;;;;;;;36.94;27.57;100126.81;5072364;28;20386;-80
2022/08/10 09:11:03;;;;;;;;;;;;;;;36.95;26.60;100130.50;5071936;28;19924;-80
2022/08/10 09:13:43;;;;;;;;;;;;;;;36.94;26.71;100123.16;5072405;28;19917;-81
2022/08/10 09:16:21;;;;;;;;;;;;;;;35.82;28.33;100122.28;5073707;28;20271;-80
2022/08/10 09:18:58;;;;;;;;;;;;;;;34.87;29.42;100117.97;5072806;28;20263;-82
2022/08/10 09:21:30;;;;;;;;;;;;;;;34.68;29.96;100125.69;5056173;28;19927;-81
2022/08/10 09:24:01;;;;;;;;;;;;;;;34.69;30.24;100115.72;5072682;28;19921;-81
2022/08/10 09:26:34;;;;;;;;;;;;;;;34.53;29.57;100117.34;5072529;28;19916;-81
2022/08/10 09:29:01;;;;;;;;;;;;;;;35.39;27.93;100113.44;5072673;28;20003;-80
2022/08/10 09:31:30;;;;;;;;;;;;;;;36.13;27.24;100111.47;5055859;28;20263;-81
2022/08/10 09:34:09;;;;;;;;;;;;;;;36.67;26.34;100113.47;5071946;28;19955;-80
2022/08/10 09:36:37;;;;;;;;;;;;;;;37.23;26.33;100124.28;5071996;28;19921;-81
2022/08/10 09:39:09;;;;;;;;;;;;;;;36.14;27.73;100118.84;5072050;28;19921;-79
2022/08/10 09:41:54;;;;;;;;;;;;;;;36.23;28.50;100115.59;5073043;28;20061;-80
2022/08/10 09:44:40;;;;;;;;;;;;;;;35.96;28.46;100114.56;5071927;28;19924;-80
2022/08/10 09:47:24;;;;;;;;;;;;;;;36.84;27.46;100111.13;5071973;28;19920;-79
2022/08/10 09:50:17;;;;;;;;;;;;;;;37.47;26.55;100115.50;5072783;28;19917;-80
2022/08/10 09:52:50;;;;;;;;;;;;;;;36.14;28.28;100113.03;5073212;28;19923;-80
2022/08/10 09:55:34;;;;;;;;;;;;;;;36.00;28.62;100114.25;5072053;28;19916;-81
2022/08/10 09:58:06;;;;;;;;;;;;;;;35.59;29.54;100107.25;5071939;28;19963;-81
2022/08/10 10:00:42;;;;;;;;;;;;;;;35.25;30.25;100105.91;5072784;28;20035;-80
2022/08/10 10:03:08;;;;;;;;;;;;;;;35.57;29.76;100109.09;5073362;28;19917;-80
2022/08/10 10:05:57;;;;;;;;;;;;;;;34.38;31.90;100117.66;5071807;28;20274;-80
2022/08/10 10:08:30;;;;;;;;;;;;;;;34.39;31.47;100109.75;5072399;28;20359;-80
2022/08/10 10:11:10;;;;;;;;;;;;;;;34.67;30.89;100118.31;5071847;28;19947;-81
2022/08/10 10:13:38;;;;;;;;;;;;;;;35.01;30.58;100112.41;5075549;28;19921;-79
2022/08/10 10:16:18;;;;;;;;;;;;;;;35.93;28.99;100116.41;5075508;28;19916;-80
2022/08/10 10:18:48;;;;;;;;;;;;;;;36.25;28.50;100115.81;5075525;28;19916;-79
2022/08/10 10:21:24;;;;;;;;;;;;;;;35.94;28.89;100105.63;5075188;28;19916;-79
2022/08/10 10:23:50;;;;;;;;;;;;;;;35.39;29.98;100114.22;5075149;28;19920;-80
2022/08/10 10:26:20;;;;;;;;;;;;;;;34.82;30.85;100107.22;5075693;28;19924;-79
2022/08/10 10:28:51;;;;;;;;;;;;;;;35.20;30.82;100107.53;5076887;28;19965;-79
2022/08/10 10:31:19;;;;;;;;;;;;;;;34.13;32.50;100110.09;5076021;28;20359;-79
2022/08/10 10:33:48;;;;;;;;;;;;;;;34.40;32.62;100112.09;5075198;28;19931;-79
2022/08/10 10:36:15;;;;;;;;;;;;;;;34.14;31.84;100112.50;5075194;28;19924;-79
2022/08/10 10:38:41;;;;;;;;;;;;;;;34.43;31.92;100103.72;5058620;28;19927;-79
2022/08/10 10:41:10;;;;;;;;;;;;;;;34.56;31.59;100106.81;5075354;28;20324;-78
2022/08/10 10:43:43;;;;;;;;;;;;;;;35.39;31.26;100099.75;5074846;28;19916;-79
2022/08/10 10:46:15;;;;;;;;;;;;;;;35.42;31.05;100092.91;5075442;28;20351;-79
2022/08/10 10:48:46;;;;;;;;;;;;;;;35.20;31.46;100098.06;5075375;28;20286;-79
2022/08/10 10:51:17;;;;;;;;;;;;;;;34.81;31.78;100105.66;5075888;28;19916;-79
2022/08/10 10:54:02;;;;;;;;;;;;;;;33.83;33.10;100102.03;5075027;28;19943;-78
2022/08/10 10:56:46;;;;;;;;;;;;;;;33.95;33.88;100104.91;5075492;28;19924;-79
2022/08/10 10:59:17;;;;;;;;;;;;;;;33.65;34.09;100119.06;5074616;28;20019;-79
2022/08/10 11:02:01;;;;;;;;;;;;;;;33.62;33.97;100106.50;5075314;28;19921;-78
2022/08/10 11:04:34;;;;;;;;;;;;;;;33.59;33.94;100102.56;5074472;28;19974;-78
2022/08/10 11:07:01;;;;;;;;;;;;;;;33.98;33.10;100098.06;5074388;28;19916;-79
2022/08/10 11:09:47;;;;;;;;;;;;;;;33.82;34.40;100100.44;5074555;28;19920;-79
2022/08/10 11:12:16;;;;;;;;;;;;;;;33.45;34.37;100102.81;5073826;28;19916;-79
2022/08/10 11:14:55;;;;;;;;;;;;;;;33.16;35.16;100092.56;5074303;28;19917;-78
2022/08/10 11:17:43;;;;;;;;;;;;;;;32.00;36.99;100098.91;5074929;28;20354;-78
2022/08/10 11:20:14;;;;;;;;;;;;;;;31.77;37.63;100097.94;5055327;28;20018;-77
2022/08/10 11:22:58;;;;;;;;;;;;;;;32.73;35.65;100084.84;5075065;28;19916;-78
2022/08/10 11:25:29;;;;;;;;;;;;;;;33.42;34.37;100090.25;5074398;28;19921;-78
2022/08/10 11:28:11;;;;;;;;;;;;;;;33.70;33.97;100090.22;5074813;28;20371;-78
2022/08/10 11:30:46;;;;;;;;;;;;;;;33.20;34.69;100093.88;5073848;28;19955;-78
2022/08/10 11:33:30;;;;;;;;;;;;;;;33.23;34.44;100087.06;5074333;28;19920;-77
2022/08/10 11:36:01;;;;;;;;;;;;;;;34.35;32.76;100081.16;5074497;28;19959;-78
2022/08/10 11:38:27;;;;;;;;;;;;;;;34.93;31.91;100083.25;5073905;28;20367;-78
2022/08/10 11:41:00;;;;;;;;;;;;;;;35.37;31.02;100082.19;5073667;28;19923;-78
2022/08/10 11:43:28;;;;;;;;;;;;;;;34.99;30.84;100075.34;5073716;28;20408;-78
2022/08/10 11:46:10;;;;;;;;;;;;;;;34.24;32.57;100075.41;5057143;28;19928;-78
2022/08/10 11:48:42;;;;;;;;;;;;;;;34.49;32.38;100078.50;5074176;28;20006;-78
2022/08/10 11:51:11;;;;;;;;;;;;;;;34.87;31.63;100057.28;5073481;28;19923;-78
2022/08/10 11:53:55;;;;;;;;;;;;;;;34.67;32.38;100075.00;5073627;28;19966;-78
2022/08/10 11:56:26;;;;;;;;;;;;;;;33.60;34.34;100078.16;5073358;28;19916;-78
2022/08/10 12:01:40;;;;;;;;;;;;;;;33.82;33.53;100056.38;5075131;28;19969;-78
2022/08/10 12:04:07;;;;;;;;;;;;;;;34.58;32.91;100058.78;5056882;28;20024;-78
2022/08/10 12:06:37;;;;;;;;;;;;;;;34.77;32.82;100046.56;5056664;28;19920;-78
2022/08/10 12:09:06;;;;;;;;;;;;;;;35.15;31.79;100042.63;5074671;28;19926;-79
2022/08/10 12:11:32;;;;;;;;;;;;;;;35.20;31.61;100043.91;5056857;28;20378;-78
2022/08/10 12:14:16;;;;;;;;;;;;;;;35.03;32.17;100037.50;5072932;28;20095;-78
2022/08/10 12:16:48;;;;;;;;;;;;;;;33.98;33.24;100041.13;5074237;28;19917;-78
2022/08/10 12:19:27;;;;;;;;;;;;;;;34.61;32.68;100030.91;5074441;28;19916;-78
2022/08/10 12:21:57;;;;;;;;;;;;;;;34.20;33.42;100034.53;5072974;28;19916;-78
2022/08/10 12:24:43;;;;;;;;;;;;;;;33.30;34.67;100031.78;5074370;28;19916;-77
2022/08/10 12:27:18;;;;;;;;;;;;;;;32.95;35.04;100023.63;5072693;28;19916;-78
2022/08/10 12:32:52;;;;;;;;;;;;;;;32.96;35.68;100025.19;5073933;28;19923;-78
2022/08/10 12:35:22;;;;;;;;;;;;;;;33.22;35.17;100030.72;5072776;28;19916;-77
2022/08/10 12:37:59;;;;;;;;;;;;;;;33.13;34.82;100016.56;5072919;28;19967;-77
2022/08/10 12:40:26;;;;;;;;;;;;;;;33.46;34.84;100017.91;5072494;28;19921;-77
2022/08/10 12:42:55;;;;;;;;;;;;;;;34.14;33.31;100011.44;5072672;28;19947;-78
2022/08/10 12:45:33;;;;;;;;;;;;;;;33.91;33.62;100009.91;5072776;28;20359;-78
2022/08/10 12:48:03;;;;;;;;;;;;;;;33.48;33.44;100010.28;5072396;28;19970;-78
2022/08/10 12:50:48;;;;;;;;;;;;;;;33.22;34.42;100004.78;5072892;28;20283;-77
2022/08/10 12:53:19;;;;;;;;;;;;;;;33.46;34.82;100004.28;5074360;28;19966;-78
2022/08/10 12:55:47;;;;;;;;;;;;;;;33.30;34.28;99997.19;5072468;28;19917;-77
2022/08/10 12:58:13;;;;;;;;;;;;;;;33.01;35.46;99997.72;5072518;28;20015;-77
2022/08/10 13:00:42;;;;;;;;;;;;;;;33.54;34.38;99985.09;5072371;28;20019;-78
2022/08/10 13:03:08;;;;;;;;;;;;;;;33.31;35.11;100000.84;5073614;28;19927;-78